HRR weather

Cantarell I Platform Helipad
Villahermosa, Tabasco, Mexico

Public forecast

Using degrees Celsius for public forecast. Weather courtesy of forecast.io.

Closest aviation weather report (METAR) to Cantarell I Platform Helipad

Closest report is Carlos Rovirosa Pérez International Airport, 51.2 nm (94.8 km) SE. Retrieved 2020/07/03 19:40 UTC (33 minutes ago):

MMVA 031940Z 06008KT 6SM BKN020 32/23 A2991 RMK 8/100 HZY

Closest aviation forecast (TAF) to Cantarell I Platform Helipad

Closest forecast is Carlos Rovirosa Pérez International Airport, 51.2 nm (94.8 km) SE. Retrieved 2020/07/03 18:54 UTC (1 hour ago):

TAF MMVA 031653Z 0318/0418 07012KT 6SM HZ BKN015 BKN100 BKN220 BECMG 0320/0321 BKN015CB TEMPO 0322/0402 3SM TSRA FM040400 08005KT 5SM -RA BR SCT010 BKN030 OVC090 TEMPO 0411/0415 2SM -RA BR BKN005 OVC010 FM041500 00000KT 4SM HZ BKN012 BKN100 BKN220